UKOH

Details ICAO UKOH (KHE)
Name Khersones AB
Region Ukraine
Timezone Europe/Simferopol (UTC+3.0)
Plans Departing 22
Arriving 22
Stats Elevation 39 ft / 12 m (AMSL)
Location 44.579449° 33.396017°
Runways 1
Magnetic Variation 6.626° E
Sunrise 2017-12-15 05:17:38 UTC / 2017-12-15 08:17:38 Local
Sunset 2017-12-15 14:08:13 UTC / 2017-12-15 17:08:13 Local
Advertisement - Login to hide

Runways

ID Width Length Bearing (true) Bearing (mag) Surface Threshold Offset Overrun Length
13 115 ft / 35 m 5,621 ft / 1,713 m 10.70° 4.07° Concrete 0 ft / 0 m 0 ft / 0 m
31 115 ft / 35 m 5,621 ft / 1,713 m 190.70° 184.07° Concrete 0 ft / 0 m 0 ft / 0 m

Map

Weather


0- 5 10 15 20 25 30 35+ Temperature / ° C

Clouds and Precipitation
Forecast for 2017-12-15 12:00 UTC. Updated an hour ago

Ground ~20,000 ft ~40,000 ft Winds

METAR

UKOH 150800Z 15004MPS 1100 BR OVC003 07/07 Q1011 R03/190060 NOSIG

TAF

Not found
Warning: Do not use this data for real-world aviation or navigation. No guarantee of current accuracy is given.